createdAt,value
2017-05-23T00:00:00.811Z,14.02
2017-05-23T00:00:05.351Z,14.03
2017-05-23T00:00:09.820Z,14.03
2017-05-23T00:00:14.032Z,14.03
2017-05-23T00:00:18.322Z,14.02
2017-05-23T00:00:22.663Z,14.02
2017-05-23T00:00:27.124Z,14.02
2017-05-23T00:00:31.458Z,14.01
2017-05-23T00:00:35.911Z,14.01
2017-05-23T00:00:40.314Z,14.02
2017-05-23T00:00:44.754Z,14.02
2017-05-23T00:00:49.083Z,14.01
2017-05-23T00:00:53.542Z,14.02
2017-05-23T00:00:57.993Z,14.01
2017-05-23T00:01:02.468Z,14.01
2017-05-23T00:01:06.934Z,14.01
2017-05-23T00:01:11.272Z,14
2017-05-23T00:01:15.384Z,14
2017-05-23T00:01:19.848Z,14
2017-05-23T00:01:24.305Z,14
2017-05-23T00:01:28.669Z,14
2017-05-23T00:01:33.117Z,14
2017-05-23T00:01:37.579Z,14
2017-05-23T00:01:41.801Z,14
2017-05-23T00:01:46.146Z,14
2017-05-23T00:01:50.611Z,13.99
2017-05-23T00:01:54.935Z,13.99
2017-05-23T00:01:59.397Z,13.99
2017-05-23T00:02:03.733Z,13.98
2017-05-23T00:02:07.959Z,13.99
2017-05-23T00:02:12.412Z,13.99
2017-05-23T00:02:16.748Z,13.99
2017-05-23T00:02:21.207Z,13.98
2017-05-23T00:02:25.669Z,13.98
2017-05-23T00:02:30.055Z,13.98
2017-05-23T00:02:34.527Z,13.98
2017-05-23T00:02:39.049Z,13.98
2017-05-23T00:02:43.499Z,13.98
2017-05-23T00:02:47.958Z,13.97
2017-05-23T00:02:52.285Z,13.97
2017-05-23T00:02:56.632Z,13.97
2017-05-23T00:03:00.921Z,13.97
2017-05-23T00:03:05.498Z,13.96
2017-05-23T00:03:09.835Z,13.97
2017-05-23T00:03:14.292Z,13.97
2017-05-23T00:03:18.526Z,13.96
2017-05-23T00:03:22.996Z,13.96
2017-05-23T00:03:27.448Z,13.96
2017-05-23T00:03:31.776Z,13.96
2017-05-23T00:03:36.260Z,13.96
2017-05-23T00:03:40.612Z,13.97
2017-05-23T00:03:45.059Z,13.96
2017-05-23T00:03:49.515Z,13.96
2017-05-23T00:03:53.735Z,13.97
2017-05-23T00:03:58.184Z,13.96
2017-05-23T00:04:02.672Z,13.96
2017-05-23T00:04:07.003Z,13.97
2017-05-23T00:04:11.325Z,13.96
2017-05-23T00:04:15.778Z,13.96
2017-05-23T00:04:19.983Z,13.96
2017-05-23T00:04:24.322Z,13.96
2017-05-23T00:04:28.672Z,13.96
2017-05-23T00:04:33.133Z,13.96
2017-05-23T00:04:37.580Z,13.96
2017-05-23T00:04:42.036Z,13.96
2017-05-23T00:04:46.375Z,13.95
2017-05-23T00:04:50.703Z,13.96
2017-05-23T00:04:55.153Z,13.96
2017-05-23T00:04:59.486Z,13.95
2017-05-23T00:05:03.951Z,13.94
2017-05-23T00:05:08.409Z,13.94
2017-05-23T00:05:12.812Z,13.95
2017-05-23T00:05:17.257Z,13.94
2017-05-23T00:05:21.586Z,13.94
2017-05-23T00:05:26.033Z,13.94
2017-05-23T00:05:30.480Z,13.94
2017-05-23T00:05:34.939Z,13.94
2017-05-23T00:05:39.388Z,13.94
2017-05-23T00:05:43.726Z,13.94
2017-05-23T00:05:48.055Z,13.93
2017-05-23T00:05:52.500Z,13.94
2017-05-23T00:05:56.847Z,13.93
2017-05-23T00:06:01.260Z,13.93
2017-05-23T00:06:05.720Z,13.94
2017-05-23T00:06:09.815Z,13.94
2017-05-23T00:06:14.284Z,13.93
2017-05-23T00:06:18.733Z,13.93
2017-05-23T00:06:23.086Z,13.92
2017-05-23T00:06:27.543Z,13.92
2017-05-23T00:06:31.999Z,13.92
2017-05-23T00:06:36.456Z,13.92
2017-05-23T00:06:40.916Z,13.92
2017-05-23T00:06:45.253Z,13.92
2017-05-23T00:06:49.578Z,13.92
2017-05-23T00:06:53.671Z,13.91
2017-05-23T00:06:58.005Z,13.91
2017-05-23T00:07:02.462Z,13.91
2017-05-23T00:07:06.798Z,13.9
2017-05-23T00:07:11.018Z,13.91
2017-05-23T00:07:15.369Z,13.91
2017-05-23T00:07:19.844Z,13.91
2017-05-23T00:07:24.277Z,13.9
2017-05-23T00:07:28.616Z,13.9
2017-05-23T00:07:33.070Z,13.89
2017-05-23T00:07:37.529Z,13.9
2017-05-23T00:07:41.974Z,13.9
2017-05-23T00:07:46.314Z,13.89
2017-05-23T00:07:50.662Z,13.89
2017-05-23T00:07:54.999Z,13.88
2017-05-23T00:07:59.460Z,13.89
2017-05-23T00:08:04.170Z,13.89
2017-05-23T00:08:08.271Z,13.89
2017-05-23T00:08:12.721Z,13.89
2017-05-23T00:08:17.172Z,13.87
2017-05-23T00:08:21.388Z,13.88
2017-05-23T00:08:25.844Z,13.87
2017-05-23T00:08:30.328Z,13.88
2017-05-23T00:08:34.664Z,13.87
2017-05-23T00:08:39.121Z,13.87
2017-05-23T00:08:43.461Z,13.87
2017-05-23T00:08:47.904Z,13.88
2017-05-23T00:08:52.234Z,13.87
2017-05-23T00:08:56.686Z,13.87
2017-05-23T00:09:01.133Z,13.87
2017-05-23T00:09:05.584Z,13.86
2017-05-23T00:09:09.807Z,13.86
2017-05-23T00:09:14.258Z,13.87
2017-05-23T00:09:18.623Z,13.85
2017-05-23T00:09:22.922Z,13.86
2017-05-23T00:09:27.372Z,13.86
2017-05-23T00:09:31.827Z,13.86
2017-05-23T00:09:36.171Z,13.85
2017-05-23T00:09:40.523Z,13.86
2017-05-23T00:09:44.989Z,13.86
2017-05-23T00:09:49.442Z,13.85
2017-05-23T00:09:53.904Z,13.86
2017-05-23T00:09:58.368Z,13.85
2017-05-23T00:10:02.833Z,13.85
2017-05-23T00:10:07.269Z,13.85
2017-05-23T00:10:11.758Z,13.85
2017-05-23T00:10:15.857Z,13.85
2017-05-23T00:10:20.191Z,13.85
2017-05-23T00:10:24.640Z,13.85
2017-05-23T00:10:29.088Z,13.85
2017-05-23T00:10:33.552Z,13.85
2017-05-23T00:10:37.905Z,13.85
2017-05-23T00:10:42.357Z,13.85
2017-05-23T00:10:46.814Z,13.85
2017-05-23T00:10:51.256Z,13.85
2017-05-23T00:10:55.714Z,13.84
2017-05-23T00:11:00.164Z,13.84
2017-05-23T00:11:04.731Z,13.84
2017-05-23T00:11:09.187Z,13.85
2017-05-23T00:11:13.525Z,13.84
2017-05-23T00:11:17.970Z,13.85
2017-05-23T00:11:22.422Z,13.85
2017-05-23T00:11:26.877Z,13.85
2017-05-23T00:11:31.328Z,13.85
2017-05-23T00:11:35.676Z,13.85
2017-05-23T00:11:40.124Z,13.85
2017-05-23T00:11:44.586Z,13.85
2017-05-23T00:11:49.048Z,13.85
2017-05-23T00:11:53.499Z,13.85
2017-05-23T00:11:57.955Z,13.85
2017-05-23T00:12:02.396Z,13.85
2017-05-23T00:12:06.606Z,13.85
2017-05-23T00:12:11.069Z,13.85
2017-05-23T00:12:15.537Z,13.85
2017-05-23T00:12:19.771Z,13.85
2017-05-23T00:12:24.208Z,13.86
2017-05-23T00:12:28.548Z,13.85
2017-05-23T00:12:33.026Z,13.86
2017-05-23T00:12:37.528Z,13.86
2017-05-23T00:12:41.977Z,13.86
2017-05-23T00:12:46.315Z,13.87
2017-05-23T00:12:50.649Z,13.87
2017-05-23T00:12:55.107Z,13.87
2017-05-23T00:12:59.567Z,13.88
2017-05-23T00:13:03.916Z,13.88
2017-05-23T00:13:08.363Z,13.87
2017-05-23T00:13:12.820Z,13.87
2017-05-23T00:13:17.282Z,13.88
2017-05-23T00:13:21.730Z,13.88
2017-05-23T00:13:26.141Z,13.88
2017-05-23T00:13:30.579Z,13.88
2017-05-23T00:13:35.022Z,13.88
2017-05-23T00:13:39.469Z,13.88
2017-05-23T00:13:43.915Z,13.89
2017-05-23T00:13:48.370Z,13.89
2017-05-23T00:13:52.687Z,13.89
2017-05-23T00:13:57.147Z,13.89
2017-05-23T00:14:01.750Z,13.89
2017-05-23T00:14:06.211Z,13.89
2017-05-23T00:14:10.563Z,13.9
2017-05-23T00:14:14.910Z,13.9
2017-05-23T00:14:19.029Z,13.9
2017-05-23T00:14:23.372Z,13.9
2017-05-23T00:14:27.718Z,13.9
2017-05-23T00:14:32.062Z,13.91
2017-05-23T00:14:36.519Z,13.91
2017-05-23T00:14:40.974Z,13.91
2017-05-23T00:14:45.427Z,13.91
2017-05-23T00:14:49.649Z,13.9
2017-05-23T00:14:54.090Z,13.91
2017-05-23T00:14:58.537Z,13.92
2017-05-23T00:15:02.873Z,13.92
2017-05-23T00:15:07.379Z,13.92
2017-05-23T00:15:11.828Z,13.93
2017-05-23T00:15:16.052Z,13.93
2017-05-23T00:15:20.392Z,13.94
2017-05-23T00:15:24.835Z,13.94
2017-05-23T00:15:29.317Z,13.94
2017-05-23T00:15:33.831Z,13.95
2017-05-23T00:15:38.298Z,13.93
2017-05-23T00:15:42.752Z,13.95
2017-05-23T00:15:47.196Z,13.95
2017-05-23T00:15:51.539Z,13.95
2017-05-23T00:15:55.882Z,13.94
2017-05-23T00:16:00.291Z,13.95
2017-05-23T00:16:04.884Z,13.96
2017-05-23T00:16:09.228Z,13.96
2017-05-23T00:16:13.696Z,13.97
2017-05-23T00:16:18.032Z,13.97
2017-05-23T00:16:22.487Z,13.97
2017-05-23T00:16:26.935Z,13.97
2017-05-23T00:16:31.389Z,13.96
2017-05-23T00:16:35.723Z,13.98
2017-05-23T00:16:40.178Z,13.97
2017-05-23T00:16:44.646Z,13.98
2017-05-23T00:16:48.932Z,13.99
2017-05-23T00:16:53.272Z,13.99
2017-05-23T00:16:57.718Z,13.99
2017-05-23T00:17:02.053Z,13.99
2017-05-23T00:17:06.374Z,14
2017-05-23T00:17:10.818Z,14
2017-05-23T00:17:15.265Z,14
2017-05-23T00:17:19.587Z,14
2017-05-23T00:17:24.037Z,14.01
2017-05-23T00:17:28.488Z,14.01
2017-05-23T00:17:32.942Z,14.01
2017-05-23T00:17:37.400Z,14.01
2017-05-23T00:17:41.870Z,14.01
2017-05-23T00:17:46.322Z,14.02
2017-05-23T00:17:50.432Z,14.03
2017-05-23T00:17:54.902Z,14.02
2017-05-23T00:17:59.362Z,14.03
2017-05-23T00:18:04.522Z,14.03
2017-05-23T00:18:08.727Z,14.03
2017-05-23T00:18:12.824Z,14.04
2017-05-23T00:18:17.158Z,14.04
2017-05-23T00:18:21.488Z,14.04
2017-05-23T00:18:25.949Z,14.05
2017-05-23T00:18:30.382Z,14.04
2017-05-23T00:18:34.872Z,14.05
2017-05-23T00:18:39.322Z,14.06
2017-05-23T00:18:43.787Z,14.06
2017-05-23T00:18:48.259Z,14.06
2017-05-23T00:18:52.604Z,14.07
2017-05-23T00:18:56.830Z,14.08
2017-05-23T00:19:01.281Z,14.07
2017-05-23T00:19:05.724Z,14.07
2017-05-23T00:19:09.926Z,14.09
2017-05-23T00:19:14.273Z,14.08
2017-05-23T00:19:18.618Z,14.1
2017-05-23T00:19:22.964Z,14.09
2017-05-23T00:19:27.429Z,14.1
2017-05-23T00:19:31.886Z,14.1
2017-05-23T00:19:36.325Z,14.1
2017-05-23T00:19:40.800Z,14.11
2017-05-23T00:19:45.272Z,14.12
2017-05-23T00:19:49.732Z,14.12
2017-05-23T00:19:54.093Z,14.12
2017-05-23T00:19:58.558Z,14.12
2017-05-23T00:20:02.769Z,14.12
2017-05-23T00:20:06.971Z,14.13
2017-05-23T00:20:11.318Z,14.14
2017-05-23T00:20:15.753Z,14.13
2017-05-23T00:20:19.976Z,14.14
2017-05-23T00:20:24.437Z,14.13
2017-05-23T00:20:28.874Z,14.14
2017-05-23T00:20:33.327Z,14.14
2017-05-23T00:20:37.837Z,14.15
2017-05-23T00:20:42.285Z,14.16
2017-05-23T00:20:46.734Z,14.15
2017-05-23T00:20:51.076Z,14.15
2017-05-23T00:20:55.298Z,14.16
2017-05-23T00:20:59.515Z,14.17
2017-05-23T00:21:03.981Z,14.16
2017-05-23T00:21:08.433Z,14.16
2017-05-23T00:21:12.892Z,14.18
2017-05-23T00:21:17.227Z,14.17
2017-05-23T00:21:21.324Z,14.17
2017-05-23T00:21:25.669Z,14.18
2017-05-23T00:21:30.111Z,14.18
2017-05-23T00:21:34.568Z,14.19
2017-05-23T00:21:39.021Z,14.19
2017-05-23T00:21:43.465Z,14.19
2017-05-23T00:21:47.910Z,14.19
2017-05-23T00:21:52.242Z,14.19
2017-05-23T00:21:56.692Z,14.2
2017-05-23T00:22:01.134Z,14.21
2017-05-23T00:22:05.613Z,14.2
2017-05-23T00:22:09.944Z,14.21
2017-05-23T00:22:14.398Z,14.2
2017-05-23T00:22:18.731Z,14.21
2017-05-23T00:22:23.077Z,14.21
2017-05-23T00:22:27.536Z,14.21
2017-05-23T00:22:31.992Z,14.22
2017-05-23T00:22:36.330Z,14.22
2017-05-23T00:22:40.786Z,14.22
2017-05-23T00:22:45.250Z,14.22
2017-05-23T00:22:49.464Z,14.22
2017-05-23T00:22:53.674Z,14.22
2017-05-23T00:22:58.010Z,14.22
2017-05-23T00:23:02.620Z,14.23
2017-05-23T00:23:07.078Z,14.23
2017-05-23T00:23:11.479Z,14.23
2017-05-23T00:23:15.825Z,14.23
2017-05-23T00:23:20.162Z,14.24
2017-05-23T00:23:24.503Z,14.24
2017-05-23T00:23:28.958Z,14.23
2017-05-23T00:23:33.416Z,14.24
2017-05-23T00:23:37.878Z,14.24
2017-05-23T00:23:42.336Z,14.24
2017-05-23T00:23:46.683Z,14.24
2017-05-23T00:23:51.117Z,14.24
2017-05-23T00:23:55.566Z,14.24
2017-05-23T00:23:59.910Z,14.25
2017-05-23T00:24:04.381Z,14.24
2017-05-23T00:24:08.779Z,14.25
2017-05-23T00:24:13.227Z,14.25
2017-05-23T00:24:17.582Z,14.25
2017-05-23T00:24:21.918Z,14.25
2017-05-23T00:24:26.264Z,14.25
2017-05-23T00:24:30.737Z,14.26
2017-05-23T00:24:35.191Z,14.26
2017-05-23T00:24:39.424Z,14.25
2017-05-23T00:24:43.656Z,14.26
2017-05-23T00:24:48.125Z,14.26
2017-05-23T00:24:52.532Z,14.25
2017-05-23T00:24:56.880Z,14.25
2017-05-23T00:25:01.347Z,14.25
2017-05-23T00:25:05.563Z,14.26
2017-05-23T00:25:10.013Z,14.26
2017-05-23T00:25:14.470Z,14.26
2017-05-23T00:25:18.805Z,14.26
2017-05-23T00:25:23.130Z,14.25
2017-05-23T00:25:27.452Z,14.25
2017-05-23T00:25:31.912Z,14.26
2017-05-23T00:25:36.358Z,14.26
2017-05-23T00:25:40.705Z,14.26
2017-05-23T00:25:45.101Z,14.26
2017-05-23T00:25:49.551Z,14.26
2017-05-23T00:25:53.771Z,14.26
2017-05-23T00:25:58.241Z,14.26
2017-05-23T00:26:02.700Z,14.25
2017-05-23T00:26:07.151Z,14.27
2017-05-23T00:26:11.617Z,14.26
2017-05-23T00:26:15.963Z,14.26
2017-05-23T00:26:20.430Z,14.25
2017-05-23T00:26:24.633Z,14.26
2017-05-23T00:26:28.978Z,14.26
2017-05-23T00:26:33.375Z,14.26
2017-05-23T00:26:37.835Z,14.26
2017-05-23T00:26:42.182Z,14.25
2017-05-23T00:26:46.511Z,14.26
2017-05-23T00:26:50.963Z,14.26
2017-05-23T00:26:55.180Z,14.25
2017-05-23T00:26:59.632Z,14.26
2017-05-23T00:27:04.412Z,14.26
2017-05-23T00:27:08.878Z,14.26
2017-05-23T00:27:13.339Z,14.26
2017-05-23T00:27:17.800Z,14.26
2017-05-23T00:27:22.202Z,14.26
2017-05-23T00:27:26.555Z,14.26
2017-05-23T00:27:30.999Z,14.26
2017-05-23T00:27:35.446Z,14.26
2017-05-23T00:27:39.927Z,14.25
2017-05-23T00:27:44.282Z,14.25
2017-05-23T00:27:48.749Z,14.25
2017-05-23T00:27:52.996Z,14.25
2017-05-23T00:27:57.345Z,14.24
2017-05-23T00:28:01.797Z,14.25
2017-05-23T00:28:06.250Z,14.25
2017-05-23T00:28:10.364Z,14.24
2017-05-23T00:28:14.831Z,14.24
2017-05-23T00:28:19.300Z,14.24
2017-05-23T00:28:23.637Z,14.24
2017-05-23T00:28:27.875Z,14.24
2017-05-23T00:28:32.208Z,14.23
2017-05-23T00:28:36.553Z,14.23
2017-05-23T00:28:40.901Z,14.23
2017-05-23T00:28:45.243Z,14.23
2017-05-23T00:28:49.588Z,14.23
2017-05-23T00:28:53.706Z,14.23
2017-05-23T00:28:58.176Z,14.23
2017-05-23T00:29:02.831Z,14.22
2017-05-23T00:29:07.295Z,14.22
2017-05-23T00:29:11.744Z,14.23
2017-05-23T00:29:16.235Z,14.22
2017-05-23T00:29:20.554Z,14.21
2017-05-23T00:29:25.009Z,14.21
2017-05-23T00:29:28.985Z,14.21
2017-05-23T00:29:33.323Z,14.21
2017-05-23T00:29:37.798Z,14.21
2017-05-23T00:29:42.241Z,14.21
2017-05-23T00:29:46.588Z,14.2
2017-05-23T00:29:51.053Z,14.2
2017-05-23T00:29:55.526Z,14.2
2017-05-23T00:29:59.882Z,14.21
2017-05-23T00:30:04.455Z,14.21
2017-05-23T00:30:08.659Z,14.2
2017-05-23T00:30:12.992Z,14.2
2017-05-23T00:30:17.348Z,14.2
2017-05-23T00:30:21.702Z,14.19
2017-05-23T00:30:26.046Z,14.19
2017-05-23T00:30:30.260Z,14.19
2017-05-23T00:30:34.601Z,14.19
2017-05-23T00:30:38.944Z,14.19
2017-05-23T00:30:43.284Z,14.2
2017-05-23T00:30:47.767Z,14.19
2017-05-23T00:30:51.944Z,14.19
2017-05-23T00:30:56.396Z,14.19
2017-05-23T00:31:00.856Z,14.19
2017-05-23T00:31:05.363Z,14.18
2017-05-23T00:31:09.815Z,14.18
2017-05-23T00:31:14.290Z,14.18
2017-05-23T00:31:18.503Z,14.17
2017-05-23T00:31:22.970Z,14.17
2017-05-23T00:31:27.193Z,14.17
2017-05-23T00:31:31.536Z,14.18
2017-05-23T00:31:36.018Z,14.17
2017-05-23T00:31:40.476Z,14.17
2017-05-23T00:31:44.925Z,14.17
2017-05-23T00:31:49.367Z,14.17
2017-05-23T00:31:53.692Z,14.16
2017-05-23T00:31:58.149Z,14.16
2017-05-23T00:32:02.507Z,14.15
2017-05-23T00:32:06.852Z,14.15
2017-05-23T00:32:11.194Z,14.15
2017-05-23T00:32:15.533Z,14.15
2017-05-23T00:32:19.879Z,14.15
2017-05-23T00:32:24.338Z,14.15
2017-05-23T00:32:28.683Z,14.15
2017-05-23T00:32:33.009Z,14.14
2017-05-23T00:32:37.475Z,14.14
2017-05-23T00:32:41.939Z,14.14
2017-05-23T00:32:46.279Z,14.14
2017-05-23T00:32:50.724Z,14.13
2017-05-23T00:32:55.190Z,14.13
2017-05-23T00:32:59.652Z,14.13
2017-05-23T00:33:04.126Z,14.13
2017-05-23T00:33:08.590Z,14.13
2017-05-23T00:33:12.921Z,14.11
2017-05-23T00:33:17.388Z,14.12
2017-05-23T00:33:21.733Z,14.12
2017-05-23T00:33:26.068Z,14.11
2017-05-23T00:33:30.407Z,14.11
2017-05-23T00:33:34.618Z,14.1
2017-05-23T00:33:39.087Z,14.09
2017-05-23T00:33:43.627Z,14.1
2017-05-23T00:33:47.987Z,14.09
2017-05-23T00:33:52.326Z,14.09
2017-05-23T00:33:56.658Z,14.09
2017-05-23T00:34:01.125Z,14.09
2017-05-23T00:34:05.579Z,14.09
2017-05-23T00:34:09.807Z,14.08
2017-05-23T00:34:14.274Z,14.08
2017-05-23T00:34:18.618Z,14.07
2017-05-23T00:34:22.944Z,14.08
2017-05-23T00:34:27.408Z,14.07
2017-05-23T00:34:31.861Z,14.07
2017-05-23T00:34:36.346Z,14.08
2017-05-23T00:34:40.813Z,14.06
2017-05-23T00:34:45.275Z,14.07
2017-05-23T00:34:49.616Z,14.06
2017-05-23T00:34:53.945Z,14.06
2017-05-23T00:34:58.400Z,14.06
2017-05-23T00:35:02.870Z,14.06
2017-05-23T00:35:07.310Z,14.05
2017-05-23T00:35:11.783Z,14.05
2017-05-23T00:35:16.123Z,14.05
2017-05-23T00:35:20.558Z,14.05
2017-05-23T00:35:24.662Z,14.04
2017-05-23T00:35:29.134Z,14.03
2017-05-23T00:35:33.553Z,14.04
2017-05-23T00:35:37.892Z,14.03
2017-05-23T00:35:42.345Z,14.03
2017-05-23T00:35:46.786Z,14.03
2017-05-23T00:35:51.014Z,14.03
2017-05-23T00:35:55.247Z,14.02
2017-05-23T00:35:59.693Z,14.02
2017-05-23T00:36:04.153Z,14.02
2017-05-23T00:36:08.384Z,14.02
2017-05-23T00:36:12.840Z,14.01
2017-05-23T00:36:17.183Z,14.01
2017-05-23T00:36:21.642Z,14.01
2017-05-23T00:36:26.085Z,14
2017-05-23T00:36:30.516Z,14
2017-05-23T00:36:34.851Z,13.99
2017-05-23T00:36:39.313Z,13.99
2017-05-23T00:36:43.778Z,13.98
2017-05-23T00:36:48.231Z,13.98
2017-05-23T00:36:52.566Z,13.98
2017-05-23T00:36:56.892Z,13.98
2017-05-23T00:37:01.354Z,13.98
2017-05-23T00:37:05.672Z,13.97
2017-05-23T00:37:10.126Z,13.97
2017-05-23T00:37:14.655Z,13.96
2017-05-23T00:37:18.996Z,13.96
2017-05-23T00:37:23.460Z,13.96
2017-05-23T00:37:27.902Z,13.96
2017-05-23T00:37:32.359Z,13.95
2017-05-23T00:37:36.881Z,13.95
2017-05-23T00:37:41.240Z,13.94
2017-05-23T00:37:45.712Z,13.93
2017-05-23T00:37:50.162Z,13.93
2017-05-23T00:37:54.495Z,13.93
2017-05-23T00:37:58.947Z,13.93
2017-05-23T00:38:03.661Z,13.93
2017-05-23T00:38:08.125Z,13.92
2017-05-23T00:38:12.598Z,13.92
2017-05-23T00:38:16.812Z,13.92
2017-05-23T00:38:20.934Z,13.91
2017-05-23T00:38:25.376Z,13.91
2017-05-23T00:38:29.840Z,13.89
2017-05-23T00:38:34.174Z,13.9
2017-05-23T00:38:38.449Z,13.9
2017-05-23T00:38:42.789Z,13.89
2017-05-23T00:38:47.263Z,13.89
2017-05-23T00:38:51.606Z,13.89
2017-05-23T00:38:55.934Z,13.89
2017-05-23T00:39:00.399Z,13.88
2017-05-23T00:39:04.848Z,13.88
2017-05-23T00:39:09.302Z,13.87
2017-05-23T00:39:13.749Z,13.87
2017-05-23T00:39:18.093Z,13.86
2017-05-23T00:39:22.553Z,13.87
2017-05-23T00:39:27.013Z,13.86
2017-05-23T00:39:31.475Z,13.85
2017-05-23T00:39:35.823Z,13.85
2017-05-23T00:39:40.171Z,13.84
2017-05-23T00:39:44.621Z,13.84
2017-05-23T00:39:48.946Z,13.84
2017-05-23T00:39:53.177Z,13.83
2017-05-23T00:39:57.646Z,13.83
2017-05-23T00:40:02.097Z,13.82
2017-05-23T00:40:06.444Z,13.82
2017-05-23T00:40:10.775Z,13.82
2017-05-23T00:40:15.235Z,13.81
2017-05-23T00:40:19.714Z,13.81
2017-05-23T00:40:24.165Z,13.8
2017-05-23T00:40:28.490Z,13.8
2017-05-23T00:40:32.949Z,13.79
2017-05-23T00:40:37.285Z,13.79
2017-05-23T00:40:41.745Z,13.78
2017-05-23T00:40:46.201Z,13.77
2017-05-23T00:40:50.647Z,13.78
2017-05-23T00:40:54.975Z,13.77
2017-05-23T00:40:59.429Z,13.77
2017-05-23T00:41:03.853Z,13.76
2017-05-23T00:41:08.289Z,13.75
2017-05-23T00:41:12.753Z,13.75
2017-05-23T00:41:17.232Z,13.75
2017-05-23T00:41:21.452Z,13.75
2017-05-23T00:41:25.786Z,13.75
2017-05-23T00:41:30.244Z,13.74
2017-05-23T00:41:34.700Z,13.74
2017-05-23T00:41:39.038Z,13.73
2017-05-23T00:41:43.375Z,13.73
2017-05-23T00:41:47.714Z,13.73
2017-05-23T00:41:52.041Z,13.72
2017-05-23T00:41:56.493Z,13.72
2017-05-23T00:42:00.941Z,13.72
2017-05-23T00:42:05.599Z,13.71
2017-05-23T00:42:09.811Z,13.71
2017-05-23T00:42:13.923Z,13.71
2017-05-23T00:42:18.262Z,13.71
2017-05-23T00:42:22.611Z,13.7
2017-05-23T00:42:27.061Z,13.7
2017-05-23T00:42:31.506Z,13.7
2017-05-23T00:42:35.969Z,13.69
2017-05-23T00:42:40.319Z,13.69
2017-05-23T00:42:44.785Z,13.69
2017-05-23T00:42:49.242Z,13.68
2017-05-23T00:42:53.728Z,13.67
2017-05-23T00:42:58.198Z,13.67
2017-05-23T00:43:02.529Z,13.67
2017-05-23T00:43:06.863Z,13.67
2017-05-23T00:43:11.332Z,13.65
2017-05-23T00:43:15.783Z,13.65
2017-05-23T00:43:20.228Z,13.65
2017-05-23T00:43:24.677Z,13.65
2017-05-23T00:43:29.027Z,13.65
2017-05-23T00:43:33.488Z,13.64
2017-05-23T00:43:37.930Z,13.64
2017-05-23T00:43:42.266Z,13.63
2017-05-23T00:43:46.634Z,13.63
2017-05-23T00:43:51.102Z,13.62
2017-05-23T00:43:55.564Z,13.62
2017-05-23T00:44:00.025Z,13.61
2017-05-23T00:44:04.493Z,13.62
2017-05-23T00:44:08.715Z,13.61
2017-05-23T00:44:13.172Z,13.61
2017-05-23T00:44:17.629Z,13.6
2017-05-23T00:44:22.087Z,13.59
2017-05-23T00:44:26.561Z,13.59
2017-05-23T00:44:31.030Z,13.59
2017-05-23T00:44:35.472Z,13.59
2017-05-23T00:44:39.974Z,13.58
2017-05-23T00:44:44.322Z,13.59
2017-05-23T00:44:48.680Z,13.58
2017-05-23T00:44:53.020Z,13.57
2017-05-23T00:44:57.493Z,13.57
2017-05-23T00:45:02.178Z,13.57
2017-05-23T00:45:06.524Z,13.57
2017-05-23T00:45:10.878Z,13.56
2017-05-23T00:45:15.227Z,13.55
2017-05-23T00:45:19.688Z,13.56
2017-05-23T00:45:24.129Z,13.55
2017-05-23T00:45:28.597Z,13.54
2017-05-23T00:45:32.940Z,13.54
2017-05-23T00:45:37.273Z,13.54
2017-05-23T00:45:41.611Z,13.54
2017-05-23T00:45:45.952Z,13.54
2017-05-23T00:45:50.407Z,13.53
2017-05-23T00:45:54.868Z,13.53
2017-05-23T00:45:59.203Z,13.52
2017-05-23T00:46:03.638Z,13.53
2017-05-23T00:46:07.977Z,13.51
2017-05-23T00:46:12.411Z,13.52
2017-05-23T00:46:16.881Z,13.51
2017-05-23T00:46:21.228Z,13.51
2017-05-23T00:46:25.763Z,13.5
2017-05-23T00:46:30.211Z,13.49
2017-05-23T00:46:34.667Z,13.5
2017-05-23T00:46:39.116Z,13.5
2017-05-23T00:46:43.580Z,13.49
2017-05-23T00:46:48.053Z,13.49
2017-05-23T00:46:52.270Z,13.49
2017-05-23T00:46:56.591Z,13.49
2017-05-23T00:47:00.934Z,13.48
2017-05-23T00:47:05.397Z,13.48
2017-05-23T00:47:09.870Z,13.48
2017-05-23T00:47:14.338Z,13.48
2017-05-23T00:47:18.794Z,13.47
2017-05-23T00:47:23.014Z,13.47
2017-05-23T00:47:27.336Z,13.47
2017-05-23T00:47:31.809Z,13.47
2017-05-23T00:47:36.257Z,13.46
2017-05-23T00:47:40.599Z,13.46
2017-05-23T00:47:44.843Z,13.46
2017-05-23T00:47:49.297Z,13.46
2017-05-23T00:47:53.527Z,13.45
2017-05-23T00:47:57.996Z,13.44
2017-05-23T00:48:02.498Z,13.45
2017-05-23T00:48:06.946Z,13.45
2017-05-23T00:48:11.649Z,13.44
2017-05-23T00:48:16.123Z,13.44
2017-05-23T00:48:20.586Z,13.44
2017-05-23T00:48:24.947Z,13.45
2017-05-23T00:48:29.403Z,13.43
2017-05-23T00:48:33.750Z,13.43
2017-05-23T00:48:38.102Z,13.43
2017-05-23T00:48:42.454Z,13.43
2017-05-23T00:48:46.667Z,13.42
2017-05-23T00:48:50.904Z,13.43
2017-05-23T00:48:55.234Z,13.42
2017-05-23T00:48:59.697Z,13.42
2017-05-23T00:49:04.157Z,13.42
2017-05-23T00:49:08.596Z,13.41
2017-05-23T00:49:13.051Z,13.41
2017-05-23T00:49:17.516Z,13.41
2017-05-23T00:49:21.984Z,13.41
2017-05-23T00:49:26.439Z,13.42
2017-05-23T00:49:30.903Z,13.4
2017-05-23T00:49:35.240Z,13.4
2017-05-23T00:49:39.698Z,13.4
2017-05-23T00:49:43.928Z,13.4
2017-05-23T00:49:48.278Z,13.4
2017-05-23T00:49:52.617Z,13.4
2017-05-23T00:49:56.976Z,13.4
2017-05-23T00:50:01.449Z,13.4
2017-05-23T00:50:05.696Z,13.39
2017-05-23T00:50:09.912Z,13.39
2017-05-23T00:50:14.256Z,13.39
2017-05-23T00:50:18.690Z,13.39
2017-05-23T00:50:23.136Z,13.38
2017-05-23T00:50:27.589Z,13.39
2017-05-23T00:50:32.031Z,13.39
2017-05-23T00:50:36.383Z,13.38
2017-05-23T00:50:40.773Z,13.38
2017-05-23T00:50:45.239Z,13.37
2017-05-23T00:50:49.571Z,13.38
2017-05-23T00:50:53.893Z,13.38
2017-05-23T00:50:58.337Z,13.38
2017-05-23T00:51:02.838Z,13.38
2017-05-23T00:51:07.169Z,13.37
2017-05-23T00:51:11.623Z,13.37
2017-05-23T00:51:16.072Z,13.37
2017-05-23T00:51:20.292Z,13.37
2017-05-23T00:51:24.734Z,13.37
2017-05-23T00:51:29.102Z,13.37
2017-05-23T00:51:33.553Z,13.37
2017-05-23T00:51:38.003Z,13.37
2017-05-23T00:51:42.333Z,13.36
2017-05-23T00:51:46.652Z,13.36
2017-05-23T00:51:50.982Z,13.36
2017-05-23T00:51:55.253Z,13.35
2017-05-23T00:51:59.705Z,13.36
2017-05-23T00:52:04.039Z,13.36
2017-05-23T00:52:08.487Z,13.35
2017-05-23T00:52:12.937Z,13.35
2017-05-23T00:52:17.277Z,13.35
2017-05-23T00:52:21.748Z,13.35
2017-05-23T00:52:26.202Z,13.35
2017-05-23T00:52:30.660Z,13.35
2017-05-23T00:52:35.122Z,13.35
2017-05-23T00:52:39.465Z,13.34
2017-05-23T00:52:43.817Z,13.35
2017-05-23T00:52:48.037Z,13.34
2017-05-23T00:52:52.260Z,13.35
2017-05-23T00:52:56.714Z,13.35
2017-05-23T00:53:01.179Z,13.35
2017-05-23T00:53:05.628Z,13.34
2017-05-23T00:53:10.094Z,13.35
2017-05-23T00:53:14.443Z,13.34
2017-05-23T00:53:18.894Z,13.34
2017-05-23T00:53:23.330Z,13.34
2017-05-23T00:53:27.816Z,13.34
2017-05-23T00:53:32.161Z,13.33
2017-05-23T00:53:36.391Z,13.34
2017-05-23T00:53:40.863Z,13.33
2017-05-23T00:53:45.192Z,13.33
2017-05-23T00:53:49.542Z,13.33
2017-05-23T00:53:53.775Z,13.33
2017-05-23T00:53:58.246Z,13.34
2017-05-23T00:54:02.948Z,13.33
2017-05-23T00:54:07.302Z,13.33
2017-05-23T00:54:11.786Z,13.33
2017-05-23T00:54:16.228Z,13.33
2017-05-23T00:54:20.688Z,13.33
2017-05-23T00:54:25.016Z,13.33
2017-05-23T00:54:29.474Z,13.33
2017-05-23T00:54:33.821Z,13.34
2017-05-23T00:54:37.909Z,13.33
2017-05-23T00:54:42.369Z,13.33
2017-05-23T00:54:46.826Z,13.32
2017-05-23T00:54:51.042Z,13.32
2017-05-23T00:54:55.451Z,13.33
2017-05-23T00:54:59.910Z,13.32
2017-05-23T00:55:04.132Z,13.32
2017-05-23T00:55:08.476Z,13.32
2017-05-23T00:55:12.921Z,13.32
2017-05-23T00:55:17.370Z,13.31
2017-05-23T00:55:21.688Z,13.31
2017-05-23T00:55:26.136Z,13.31
2017-05-23T00:55:30.579Z,13.31
2017-05-23T00:55:34.923Z,13.32
2017-05-23T00:55:39.375Z,13.32
2017-05-23T00:55:43.727Z,13.32
2017-05-23T00:55:48.075Z,13.32
2017-05-23T00:55:52.534Z,13.32
2017-05-23T00:55:56.765Z,13.32
2017-05-23T00:56:01.234Z,13.32
2017-05-23T00:56:05.686Z,13.32
2017-05-23T00:56:10.133Z,13.31
2017-05-23T00:56:14.469Z,13.31
2017-05-23T00:56:18.989Z,13.32
2017-05-23T00:56:23.312Z,13.31
2017-05-23T00:56:27.648Z,13.31
2017-05-23T00:56:32.106Z,13.31
2017-05-23T00:56:36.547Z,13.31
2017-05-23T00:56:40.847Z,13.32
2017-05-23T00:56:45.293Z,13.31
2017-05-23T00:56:49.638Z,13.31